• Join FlightAware (Why Join?)
  • Login
  • US Flag 
09:49PM EDT


 

Airport Tracker/Info


-or-


 

Live Flight TrackerFlight Track Log ✈ CSN6833 ✈ 28-Mar-2014 ✈ ZYTL / DLC - ZYMD / MDG

Flight Track Log - Related Links

Times and Time Zones

All times are in EDT time to prevent confusion due to time zone crossing. See the CSN6833 flight status page for this flight to view local times or setup timezone preferences in your user account.

Time Position Orientation Groundspeed Altitude Reporting Facility
EDT Latitude Longitude Course Direction KTS MPH feet Rate Location/Type
02:05AM 39.4011 122.0946 45° Northeast  Level Estimated
02:06AM 39.4734 122.1879 45° Northeast  Level Estimated
02:07AM 39.5457 122.2814 45° Northeast  Level Estimated
02:08AM 39.6178 122.3752 45° Northeast  Level Estimated
02:09AM 39.6899 122.4691 45° Northeast  Level Estimated
02:10AM 39.7620 122.5632 45° Northeast  Level Estimated
02:11AM 39.8339 122.6575 45° Northeast  Level Estimated
02:12AM 39.9058 122.7520 45° Northeast  Level Estimated
02:13AM 39.9775 122.8467 45° Northeast  Level Estimated
02:14AM 40.0493 122.9416 45° Northeast  Level Estimated
02:15AM 40.1209 123.0368 45° Northeast  Level Estimated
02:16AM 40.1924 123.1320 45° Northeast  Level Estimated
02:17AM 40.2639 123.2276 46° Northeast  Level Estimated
02:18AM 40.3353 123.3233 46° Northeast  Level Estimated
02:19AM 40.4066 123.4192 46° Northeast  Level Estimated
02:20AM 40.4779 123.5153 46° Northeast  Level Estimated
02:21AM 40.5490 123.6116 46° Northeast  Level Estimated
02:22AM 40.6201 123.7082 46° Northeast  Level Estimated
02:23AM 40.6911 123.8049 46° Northeast  Level Estimated
02:24AM 40.7620 123.9018 46° Northeast  Level Estimated
02:25AM 40.8328 123.9990 46° Northeast  Level Estimated
02:26AM 40.9036 124.0963 46° Northeast  Level Estimated
02:27AM 40.9743 124.1939 46° Northeast  Level Estimated
02:28AM 41.0449 124.2916 46° Northeast  Level Estimated
02:29AM 41.1154 124.3896 46° Northeast  Level Estimated
02:30AM 41.1858 124.4878 46° Northeast  Level Estimated
02:31AM 41.2561 124.5862 46° Northeast  Level Estimated
02:32AM 41.3264 124.6848 46° Northeast  Level Estimated
02:33AM 41.3965 124.7837 47° Northeast  Level Estimated
02:34AM 41.4666 124.8827 47° Northeast  Level Estimated
02:35AM 41.5366 124.9820 47° Northeast  Level Estimated
02:36AM 41.6066 125.0814 47° Northeast  Level Estimated
02:37AM 41.6764 125.1811 47° Northeast  Level Estimated
02:38AM 41.7461 125.2810 47° Northeast  Level Estimated
02:39AM 41.8158 125.3811 47° Northeast  Level Estimated
02:40AM 41.8854 125.4815 47° Northeast  Level Estimated
02:41AM 41.9548 125.5820 47° Northeast  Level Estimated
02:42AM 42.0242 125.6828 47° Northeast  Level Estimated
02:43AM 42.0935 125.7838 47° Northeast  Level Estimated
02:44AM 42.1628 125.8850 47° Northeast  Level Estimated
02:45AM 42.2319 125.9865 47° Northeast  Level Estimated
02:46AM 42.3009 126.0881 47° Northeast  Level Estimated
02:47AM 42.3699 126.1900 47° Northeast  Level Estimated
02:48AM 42.4387 126.2921 48° Northeast  Level Estimated
02:49AM 42.5075 126.3944 48° Northeast  Level Estimated
02:50AM 42.5762 126.4970 48° Northeast  Level Estimated
02:51AM 42.6448 126.5998 48° Northeast  Level Estimated
02:52AM 42.7132 126.7028 48° Northeast  Level Estimated
02:53AM 42.7817 126.8060 48° Northeast  Level Estimated
02:54AM 42.8499 126.9095 48° Northeast  Level Estimated
02:55AM 42.9182 127.0132 48° Northeast  Level Estimated
02:56AM 42.9863 127.1171 48° Northeast  Level Estimated
02:57AM 43.0543 127.2212 48° Northeast  Level Estimated
02:58AM 43.1222 127.3256 48° Northeast  Level Estimated
02:59AM 43.1901 127.4302 48° Northeast  Level Estimated
03:00AM 43.2578 127.5351 48° Northeast  Level Estimated
03:01AM 43.3255 127.6402 48° Northeast  Level Estimated
03:02AM 43.3930 127.7455 49° Northeast  Level Estimated
03:03AM 43.4605 127.8510 49° Northeast  Level Estimated
03:04AM 43.5278 127.9568 49° Northeast  Level Estimated
03:05AM 43.5951 128.0629 49° Northeast  Level Estimated
03:06AM 43.6622 128.1691 49° Northeast  Level Estimated
03:07AM 43.7293 128.2756 49° Northeast  Level Estimated
03:08AM 43.7962 128.3824 49° Northeast  Level Estimated
03:09AM 43.8631 128.4893 49° Northeast  Level Estimated
03:10AM 43.9299 128.5965 49° Northeast  Level Estimated
03:11AM 43.9965 128.7040 49° Northeast  Level Estimated
03:12AM 44.0631 128.8117 49° Northeast  Level Estimated
03:13AM 44.1295 128.9196 49° Northeast  Level Estimated
03:14AM 44.1959 129.0278 49° Northeast  Level Estimated
03:15AM 44.2621 129.1362 50° Northeast  Level Estimated
03:16AM 44.3283 129.2449 50° Northeast  Level Estimated
03:17AM 44.3943 129.3538 50° Northeast  Level Estimated
03:18AM 44.4603 129.4630 50° Northeast  Level Estimated
03:19AM 44.5241 129.5690 50° Northeast  Level Estimated
03:20AM 44.5241 129.5690 North  Level Estimated
03:21AM 44.5241 129.5690 North  Level Estimated